sensor_id;sensor_type;location;lat;lon;timestamp;P1;durP1;ratioP1;P2;durP2;ratioP2
56073;SDS011;41950;55.840;37.442;2023-09-12T00:01:44;26.30;;;20.80;;
56073;SDS011;41950;55.840;37.442;2023-09-12T00:04:10;28.00;;;21.23;;
56073;SDS011;41950;55.840;37.442;2023-09-12T00:06:37;26.83;;;20.92;;
56073;SDS011;41950;55.840;37.442;2023-09-12T00:09:03;25.90;;;20.75;;
56073;SDS011;41950;55.840;37.442;2023-09-12T00:11:31;23.80;;;20.17;;
56073;SDS011;41950;55.840;37.442;2023-09-12T00:13:57;24.27;;;20.38;;
56073;SDS011;41950;55.840;37.442;2023-09-12T00:16:24;25.88;;;20.88;;
56073;SDS011;41950;55.840;37.442;2023-09-12T00:18:50;23.60;;;19.52;;
56073;SDS011;41950;55.840;37.442;2023-09-12T00:21:16;29.90;;;21.85;;
56073;SDS011;41950;55.840;37.442;2023-09-12T00:23:42;25.77;;;20.70;;
56073;SDS011;41950;55.840;37.442;2023-09-12T00:26:07;25.42;;;21.33;;
56073;SDS011;41950;55.840;37.442;2023-09-12T00:28:33;24.50;;;20.83;;
56073;SDS011;41950;55.840;37.442;2023-09-12T00:30:59;25.42;;;20.40;;
56073;SDS011;41950;55.840;37.442;2023-09-12T00:33:25;27.77;;;21.33;;
56073;SDS011;41950;55.840;37.442;2023-09-12T00:35:50;27.42;;;21.65;;
56073;SDS011;41950;55.840;37.442;2023-09-12T00:38:16;24.33;;;20.75;;
56073;SDS011;41950;55.840;37.442;2023-09-12T00:40:42;28.35;;;21.08;;
56073;SDS011;41950;55.840;37.442;2023-09-12T00:43:07;26.13;;;20.70;;
56073;SDS011;41950;55.840;37.442;2023-09-12T00:45:33;25.08;;;19.92;;
56073;SDS011;41950;55.840;37.442;2023-09-12T00:47:59;25.92;;;20.17;;
56073;SDS011;41950;55.840;37.442;2023-09-12T00:50:26;26.25;;;21.17;;
56073;SDS011;41950;55.840;37.442;2023-09-12T00:52:53;25.42;;;22.02;;
56073;SDS011;41950;55.840;37.442;2023-09-12T00:55:20;25.90;;;21.70;;
56073;SDS011;41950;55.840;37.442;2023-09-12T00:57:45;28.85;;;22.67;;
56073;SDS011;41950;55.840;37.442;2023-09-12T01:00:13;27.15;;;21.35;;
56073;SDS011;41950;55.840;37.442;2023-09-12T01:02:40;27.17;;;20.38;;
56073;SDS011;41950;55.840;37.442;2023-09-12T01:05:07;26.45;;;21.58;;
56073;SDS011;41950;55.840;37.442;2023-09-12T01:07:34;26.45;;;21.48;;
56073;SDS011;41950;55.840;37.442;2023-09-12T01:10:01;27.55;;;20.90;;
56073;SDS011;41950;55.840;37.442;2023-09-12T01:12:30;26.58;;;21.45;;
56073;SDS011;41950;55.840;37.442;2023-09-12T01:14:56;28.67;;;22.45;;
56073;SDS011;41950;55.840;37.442;2023-09-12T01:17:22;30.17;;;23.63;;
56073;SDS011;41950;55.840;37.442;2023-09-12T01:19:48;32.38;;;23.13;;
56073;SDS011;41950;55.840;37.442;2023-09-12T01:22:22;29.83;;;24.50;;
56073;SDS011;41950;55.840;37.442;2023-09-12T01:25:08;28.75;;;22.83;;
56073;SDS011;41950;55.840;37.442;2023-09-12T01:27:46;31.20;;;25.00;;
56073;SDS011;41950;55.840;37.442;2023-09-12T01:30:13;28.90;;;23.83;;
56073;SDS011;41950;55.840;37.442;2023-09-12T01:32:42;32.28;;;24.77;;
56073;SDS011;41950;55.840;37.442;2023-09-12T01:35:09;29.85;;;22.58;;
56073;SDS011;41950;55.840;37.442;2023-09-12T01:37:34;28.17;;;22.50;;
56073;SDS011;41950;55.840;37.442;2023-09-12T01:40:00;27.65;;;23.00;;
56073;SDS011;41950;55.840;37.442;2023-09-12T01:42:31;26.77;;;21.88;;
56073;SDS011;41950;55.840;37.442;2023-09-12T01:45:02;27.95;;;22.58;;
56073;SDS011;41950;55.840;37.442;2023-09-12T01:47:29;26.67;;;22.38;;
56073;SDS011;41950;55.840;37.442;2023-09-12T01:49:56;28.65;;;22.02;;
56073;SDS011;41950;55.840;37.442;2023-09-12T01:52:27;30.15;;;23.17;;
56073;SDS011;41950;55.840;37.442;2023-09-12T01:54:53;26.52;;;21.15;;
56073;SDS011;41950;55.840;37.442;2023-09-12T01:57:20;26.02;;;20.70;;
56073;SDS011;41950;55.840;37.442;2023-09-12T01:59:49;27.90;;;22.40;;
56073;SDS011;41950;55.840;37.442;2023-09-12T02:02:15;26.38;;;22.45;;
56073;SDS011;41950;55.840;37.442;2023-09-12T02:04:41;28.17;;;21.50;;
56073;SDS011;41950;55.840;37.442;2023-09-12T02:07:13;26.80;;;20.70;;
56073;SDS011;41950;55.840;37.442;2023-09-12T02:09:38;28.85;;;22.80;;
56073;SDS011;41950;55.840;37.442;2023-09-12T02:12:04;24.98;;;21.83;;
56073;SDS011;41950;55.840;37.442;2023-09-12T02:14:30;27.65;;;22.75;;
56073;SDS011;41950;55.840;37.442;2023-09-12T02:16:56;26.63;;;22.42;;
56073;SDS011;41950;55.840;37.442;2023-09-12T02:19:21;28.48;;;21.70;;
56073;SDS011;41950;55.840;37.442;2023-09-12T02:21:47;29.30;;;22.02;;
56073;SDS011;41950;55.840;37.442;2023-09-12T02:24:13;27.70;;;21.88;;
56073;SDS011;41950;55.840;37.442;2023-09-12T02:26:38;29.48;;;22.52;;
56073;SDS011;41950;55.840;37.442;2023-09-12T02:29:04;27.70;;;22.13;;
56073;SDS011;41950;55.840;37.442;2023-09-12T02:31:32;26.33;;;22.10;;
56073;SDS011;41950;55.840;37.442;2023-09-12T02:33:58;26.88;;;21.58;;
56073;SDS011;41950;55.840;37.442;2023-09-12T02:36:24;28.05;;;22.25;;
56073;SDS011;41950;55.840;37.442;2023-09-12T02:38:50;26.45;;;21.48;;
56073;SDS011;41950;55.840;37.442;2023-09-12T02:41:15;27.58;;;21.73;;
56073;SDS011;41950;55.840;37.442;2023-09-12T02:43:41;27.13;;;22.20;;
56073;SDS011;41950;55.840;37.442;2023-09-12T02:46:06;27.25;;;21.52;;
56073;SDS011;41950;55.840;37.442;2023-09-12T02:48:32;27.75;;;22.60;;
56073;SDS011;41950;55.840;37.442;2023-09-12T02:50:57;27.35;;;21.10;;
56073;SDS011;41950;55.840;37.442;2023-09-12T02:53:23;28.73;;;22.42;;
56073;SDS011;41950;55.840;37.442;2023-09-12T02:55:49;26.27;;;21.48;;
56073;SDS011;41950;55.840;37.442;2023-09-12T02:58:16;28.48;;;22.85;;
56073;SDS011;41950;55.840;37.442;2023-09-12T03:00:42;28.40;;;22.80;;
56073;SDS011;41950;55.840;37.442;2023-09-12T03:03:07;28.10;;;22.13;;
56073;SDS011;41950;55.840;37.442;2023-09-12T03:05:35;27.52;;;22.80;;
56073;SDS011;41950;55.840;37.442;2023-09-12T03:08:01;28.92;;;22.35;;
56073;SDS011;41950;55.840;37.442;2023-09-12T03:10:27;29.70;;;22.95;;
56073;SDS011;41950;55.840;37.442;2023-09-12T03:12:53;30.27;;;22.55;;
56073;SDS011;41950;55.840;37.442;2023-09-12T03:15:18;27.75;;;22.23;;
56073;SDS011;41950;55.840;37.442;2023-09-12T03:17:44;29.45;;;22.38;;
56073;SDS011;41950;55.840;37.442;2023-09-12T03:20:10;30.33;;;23.02;;
56073;SDS011;41950;55.840;37.442;2023-09-12T03:22:36;30.50;;;22.05;;
56073;SDS011;41950;55.840;37.442;2023-09-12T03:25:06;28.77;;;22.80;;
56073;SDS011;41950;55.840;37.442;2023-09-12T03:27:32;29.85;;;23.00;;
56073;SDS011;41950;55.840;37.442;2023-09-12T03:29:58;31.10;;;23.70;;
56073;SDS011;41950;55.840;37.442;2023-09-12T03:32:24;32.13;;;23.70;;
56073;SDS011;41950;55.840;37.442;2023-09-12T03:34:49;29.58;;;23.13;;
56073;SDS011;41950;55.840;37.442;2023-09-12T03:37:15;31.23;;;23.23;;
56073;SDS011;41950;55.840;37.442;2023-09-12T03:39:40;29.70;;;22.88;;
56073;SDS011;41950;55.840;37.442;2023-09-12T03:42:06;29.92;;;23.15;;
56073;SDS011;41950;55.840;37.442;2023-09-12T03:44:31;32.03;;;23.50;;
56073;SDS011;41950;55.840;37.442;2023-09-12T03:46:57;30.60;;;24.67;;
56073;SDS011;41950;55.840;37.442;2023-09-12T03:49:23;31.83;;;22.77;;
56073;SDS011;41950;55.840;37.442;2023-09-12T03:51:49;31.38;;;24.38;;
56073;SDS011;41950;55.840;37.442;2023-09-12T03:54:14;26.58;;;22.83;;
56073;SDS011;41950;55.840;37.442;2023-09-12T03:56:40;31.38;;;24.75;;
56073;SDS011;41950;55.840;37.442;2023-09-12T03:59:06;31.77;;;24.70;;
56073;SDS011;41950;55.840;37.442;2023-09-12T04:01:32;30.65;;;23.45;;
56073;SDS011;41950;55.840;37.442;2023-09-12T04:03:58;28.60;;;23.15;;
56073;SDS011;41950;55.840;37.442;2023-09-12T04:06:23;31.50;;;23.13;;
56073;SDS011;41950;55.840;37.442;2023-09-12T04:08:49;31.75;;;23.20;;
56073;SDS011;41950;55.840;37.442;2023-09-12T04:11:15;27.98;;;23.17;;
56073;SDS011;41950;55.840;37.442;2023-09-12T04:13:40;28.40;;;23.52;;
56073;SDS011;41950;55.840;37.442;2023-09-12T04:16:06;28.35;;;22.90;;
56073;SDS011;41950;55.840;37.442;2023-09-12T04:18:32;27.95;;;23.40;;
56073;SDS011;41950;55.840;37.442;2023-09-12T04:20:58;29.92;;;22.77;;
56073;SDS011;41950;55.840;37.442;2023-09-12T04:23:26;31.48;;;25.40;;
56073;SDS011;41950;55.840;37.442;2023-09-12T04:25:52;31.42;;;23.17;;
56073;SDS011;41950;55.840;37.442;2023-09-12T04:28:17;31.05;;;26.08;;
56073;SDS011;41950;55.840;37.442;2023-09-12T04:30:43;32.28;;;23.88;;
56073;SDS011;41950;55.840;37.442;2023-09-12T04:33:08;29.50;;;22.98;;
56073;SDS011;41950;55.840;37.442;2023-09-12T04:35:34;31.92;;;24.63;;
56073;SDS011;41950;55.840;37.442;2023-09-12T04:38:00;31.10;;;24.17;;
56073;SDS011;41950;55.840;37.442;2023-09-12T04:40:26;29.02;;;25.00;;
56073;SDS011;41950;55.840;37.442;2023-09-12T04:42:52;28.85;;;22.73;;
56073;SDS011;41950;55.840;37.442;2023-09-12T04:45:18;30.52;;;23.35;;
56073;SDS011;41950;55.840;37.442;2023-09-12T04:47:44;29.40;;;23.92;;
56073;SDS011;41950;55.840;37.442;2023-09-12T04:50:10;30.02;;;24.23;;
56073;SDS011;41950;55.840;37.442;2023-09-12T04:52:37;31.55;;;24.33;;
56073;SDS011;41950;55.840;37.442;2023-09-12T04:55:03;29.42;;;23.27;;
56073;SDS011;41950;55.840;37.442;2023-09-12T04:57:29;29.77;;;23.98;;
56073;SDS011;41950;55.840;37.442;2023-09-12T04:59:56;31.60;;;24.10;;
56073;SDS011;41950;55.840;37.442;2023-09-12T05:02:25;33.00;;;25.90;;
56073;SDS011;41950;55.840;37.442;2023-09-12T05:04:51;29.95;;;24.40;;
56073;SDS011;41950;55.840;37.442;2023-09-12T05:07:17;32.67;;;24.35;;
56073;SDS011;41950;55.840;37.442;2023-09-12T05:09:43;30.02;;;25.63;;
56073;SDS011;41950;55.840;37.442;2023-09-12T05:12:09;30.05;;;23.77;;
56073;SDS011;41950;55.840;37.442;2023-09-12T05:14:34;29.55;;;24.15;;
56073;SDS011;41950;55.840;37.442;2023-09-12T05:17:00;31.13;;;25.48;;
56073;SDS011;41950;55.840;37.442;2023-09-12T05:19:27;29.88;;;24.38;;
56073;SDS011;41950;55.840;37.442;2023-09-12T05:21:54;29.90;;;24.33;;
56073;SDS011;41950;55.840;37.442;2023-09-12T05:24:20;30.15;;;24.35;;
56073;SDS011;41950;55.840;37.442;2023-09-12T05:26:46;29.85;;;25.10;;
56073;SDS011;41950;55.840;37.442;2023-09-12T05:29:12;29.17;;;25.00;;
56073;SDS011;41950;55.840;37.442;2023-09-12T05:31:38;32.83;;;25.48;;
56073;SDS011;41950;55.840;37.442;2023-09-12T05:34:04;28.65;;;23.27;;
56073;SDS011;41950;55.840;37.442;2023-09-12T05:36:29;32.00;;;25.13;;
56073;SDS011;41950;55.840;37.442;2023-09-12T05:38:55;30.67;;;22.55;;
56073;SDS011;41950;55.840;37.442;2023-09-12T05:41:21;30.25;;;24.80;;
56073;SDS011;41950;55.840;37.442;2023-09-12T05:43:46;30.08;;;22.95;;
56073;SDS011;41950;55.840;37.442;2023-09-12T05:46:12;29.73;;;24.38;;
56073;SDS011;41950;55.840;37.442;2023-09-12T05:48:37;28.23;;;24.70;;
56073;SDS011;41950;55.840;37.442;2023-09-12T05:51:03;31.13;;;25.33;;
56073;SDS011;41950;55.840;37.442;2023-09-12T05:53:29;28.23;;;23.55;;
56073;SDS011;41950;55.840;37.442;2023-09-12T05:55:55;28.95;;;23.42;;
56073;SDS011;41950;55.840;37.442;2023-09-12T05:58:21;29.80;;;24.60;;
56073;SDS011;41950;55.840;37.442;2023-09-12T06:00:50;29.05;;;24.65;;
56073;SDS011;41950;55.840;37.442;2023-09-12T06:03:16;29.20;;;24.45;;
56073;SDS011;41950;55.840;37.442;2023-09-12T06:05:41;30.73;;;24.45;;
56073;SDS011;41950;55.840;37.442;2023-09-12T06:08:07;29.77;;;25.05;;
56073;SDS011;41950;55.840;37.442;2023-09-12T06:10:33;27.58;;;22.60;;
56073;SDS011;41950;55.840;37.442;2023-09-12T06:12:59;31.10;;;23.08;;
56073;SDS011;41950;55.840;37.442;2023-09-12T06:15:24;28.75;;;24.35;;
56073;SDS011;41950;55.840;37.442;2023-09-12T06:17:50;29.63;;;25.17;;
56073;SDS011;41950;55.840;37.442;2023-09-12T06:20:16;27.90;;;24.75;;
56073;SDS011;41950;55.840;37.442;2023-09-12T06:22:41;31.05;;;24.25;;
56073;SDS011;41950;55.840;37.442;2023-09-12T06:25:08;27.65;;;24.38;;
56073;SDS011;41950;55.840;37.442;2023-09-12T06:27:34;26.27;;;23.25;;
56073;SDS011;41950;55.840;37.442;2023-09-12T06:30:00;29.60;;;24.92;;
56073;SDS011;41950;55.840;37.442;2023-09-12T06:32:26;27.65;;;24.65;;
56073;SDS011;41950;55.840;37.442;2023-09-12T06:34:51;30.23;;;24.90;;
56073;SDS011;41950;55.840;37.442;2023-09-12T06:37:17;27.30;;;23.10;;
56073;SDS011;41950;55.840;37.442;2023-09-12T06:39:43;30.00;;;24.75;;
56073;SDS011;41950;55.840;37.442;2023-09-12T06:42:09;29.67;;;25.70;;
56073;SDS011;41950;55.840;37.442;2023-09-12T06:44:35;29.42;;;24.33;;
56073;SDS011;41950;55.840;37.442;2023-09-12T06:47:03;29.48;;;24.83;;
56073;SDS011;41950;55.840;37.442;2023-09-12T06:49:30;28.98;;;23.73;;
56073;SDS011;41950;55.840;37.442;2023-09-12T06:51:57;29.48;;;23.83;;
56073;SDS011;41950;55.840;37.442;2023-09-12T06:54:23;29.10;;;24.65;;
56073;SDS011;41950;55.840;37.442;2023-09-12T06:56:48;26.98;;;22.15;;
56073;SDS011;41950;55.840;37.442;2023-09-12T06:59:14;28.35;;;24.42;;
56073;SDS011;41950;55.840;37.442;2023-09-12T07:01:40;27.35;;;24.30;;
56073;SDS011;41950;55.840;37.442;2023-09-12T07:04:05;28.00;;;22.67;;
56073;SDS011;41950;55.840;37.442;2023-09-12T07:06:31;31.08;;;23.58;;
56073;SDS011;41950;55.840;37.442;2023-09-12T07:08:57;28.25;;;24.80;;
56073;SDS011;41950;55.840;37.442;2023-09-12T07:11:23;27.73;;;23.38;;
56073;SDS011;41950;55.840;37.442;2023-09-12T07:13:49;29.08;;;24.65;;
56073;SDS011;41950;55.840;37.442;2023-09-12T07:16:15;27.73;;;23.77;;
56073;SDS011;41950;55.840;37.442;2023-09-12T07:18:41;27.95;;;23.33;;
56073;SDS011;41950;55.840;37.442;2023-09-12T07:21:06;29.58;;;24.55;;
56073;SDS011;41950;55.840;37.442;2023-09-12T07:23:32;29.67;;;24.10;;
56073;SDS011;41950;55.840;37.442;2023-09-12T07:25:59;30.65;;;24.02;;
56073;SDS011;41950;55.840;37.442;2023-09-12T07:28:25;26.10;;;21.60;;
56073;SDS011;41950;55.840;37.442;2023-09-12T07:30:54;28.42;;;24.67;;
56073;SDS011;41950;55.840;37.442;2023-09-12T07:33:20;26.10;;;22.75;;
56073;SDS011;41950;55.840;37.442;2023-09-12T07:35:47;28.00;;;21.63;;
56073;SDS011;41950;55.840;37.442;2023-09-12T07:38:13;27.77;;;22.92;;
56073;SDS011;41950;55.840;37.442;2023-09-12T07:40:42;27.95;;;22.77;;
56073;SDS011;41950;55.840;37.442;2023-09-12T07:43:08;28.08;;;23.45;;
56073;SDS011;41950;55.840;37.442;2023-09-12T07:45:35;27.55;;;23.88;;
56073;SDS011;41950;55.840;37.442;2023-09-12T07:48:06;26.15;;;21.15;;
56073;SDS011;41950;55.840;37.442;2023-09-12T07:50:33;26.58;;;21.58;;
56073;SDS011;41950;55.840;37.442;2023-09-12T07:52:59;29.00;;;23.17;;
56073;SDS011;41950;55.840;37.442;2023-09-12T07:55:26;25.63;;;22.27;;
56073;SDS011;41950;55.840;37.442;2023-09-12T07:57:56;25.33;;;22.40;;
56073;SDS011;41950;55.840;37.442;2023-09-12T08:00:21;25.67;;;21.80;;
56073;SDS011;41950;55.840;37.442;2023-09-12T08:02:47;25.52;;;21.00;;
56073;SDS011;41950;55.840;37.442;2023-09-12T08:05:13;26.73;;;22.15;;
56073;SDS011;41950;55.840;37.442;2023-09-12T08:07:39;26.33;;;22.30;;
56073;SDS011;41950;55.840;37.442;2023-09-12T08:10:05;26.27;;;22.40;;
56073;SDS011;41950;55.840;37.442;2023-09-12T08:12:31;26.30;;;21.20;;
56073;SDS011;41950;55.840;37.442;2023-09-12T08:14:57;25.20;;;21.45;;
56073;SDS011;41950;55.840;37.442;2023-09-12T08:17:23;25.67;;;21.92;;
56073;SDS011;41950;55.840;37.442;2023-09-12T08:19:49;24.40;;;21.30;;
56073;SDS011;41950;55.840;37.442;2023-09-12T08:22:15;27.05;;;24.15;;
56073;SDS011;41950;55.840;37.442;2023-09-12T08:24:40;25.08;;;20.48;;
56073;SDS011;41950;55.840;37.442;2023-09-12T08:27:06;23.80;;;20.67;;
56073;SDS011;41950;55.840;37.442;2023-09-12T08:29:34;22.48;;;18.92;;
56073;SDS011;41950;55.840;37.442;2023-09-12T08:32:00;22.10;;;18.80;;
56073;SDS011;41950;55.840;37.442;2023-09-12T08:34:26;22.60;;;20.17;;
56073;SDS011;41950;55.840;37.442;2023-09-12T08:36:52;23.35;;;19.90;;
56073;SDS011;41950;55.840;37.442;2023-09-12T08:39:23;24.70;;;21.00;;
56073;SDS011;41950;55.840;37.442;2023-09-12T08:41:50;24.77;;;21.58;;
56073;SDS011;41950;55.840;37.442;2023-09-12T08:44:17;25.10;;;21.33;;
56073;SDS011;41950;55.840;37.442;2023-09-12T08:46:43;28.00;;;21.35;;
56073;SDS011;41950;55.840;37.442;2023-09-12T08:49:10;25.17;;;21.23;;
56073;SDS011;41950;55.840;37.442;2023-09-12T08:51:40;24.15;;;21.23;;
56073;SDS011;41950;55.840;37.442;2023-09-12T08:54:09;22.75;;;19.98;;
56073;SDS011;41950;55.840;37.442;2023-09-12T08:56:36;22.38;;;19.80;;
56073;SDS011;41950;55.840;37.442;2023-09-12T08:59:04;24.42;;;20.05;;
56073;SDS011;41950;55.840;37.442;2023-09-12T09:01:31;25.33;;;19.10;;
56073;SDS011;41950;55.840;37.442;2023-09-12T09:03:58;23.35;;;20.75;;
56073;SDS011;41950;55.840;37.442;2023-09-12T09:06:24;24.42;;;18.60;;
56073;SDS011;41950;55.840;37.442;2023-09-12T09:08:51;21.92;;;18.38;;
56073;SDS011;41950;55.840;37.442;2023-09-12T09:11:17;17.25;;;13.50;;
56073;SDS011;41950;55.840;37.442;2023-09-12T09:13:43;15.25;;;13.75;;
56073;SDS011;41950;55.840;37.442;2023-09-12T09:18:58;15.98;;;13.02;;
56073;SDS011;41950;55.840;37.442;2023-09-12T09:21:30;17.27;;;13.55;;
56073;SDS011;41950;55.840;37.442;2023-09-12T09:24:06;16.52;;;14.20;;
56073;SDS011;41950;55.840;37.442;2023-09-12T09:26:47;16.15;;;13.57;;
56073;SDS011;41950;55.840;37.442;2023-09-12T09:29:16;14.73;;;12.55;;
56073;SDS011;41950;55.840;37.442;2023-09-12T09:31:44;14.77;;;11.85;;
56073;SDS011;41950;55.840;37.442;2023-09-12T09:34:20;14.35;;;10.90;;
56073;SDS011;41950;55.840;37.442;2023-09-12T09:36:48;13.65;;;10.77;;
56073;SDS011;41950;55.840;37.442;2023-09-12T09:39:18;13.32;;;10.48;;
56073;SDS011;41950;55.840;37.442;2023-09-12T09:41:48;14.15;;;10.07;;
56073;SDS011;41950;55.840;37.442;2023-09-12T09:44:15;13.02;;;11.73;;
56073;SDS011;41950;55.840;37.442;2023-09-12T09:46:45;13.23;;;11.10;;
56073;SDS011;41950;55.840;37.442;2023-09-12T09:49:14;17.63;;;13.07;;
56073;SDS011;41950;55.840;37.442;2023-09-12T09:51:41;13.65;;;10.43;;
56073;SDS011;41950;55.840;37.442;2023-09-12T09:54:11;13.57;;;11.25;;
56073;SDS011;41950;55.840;37.442;2023-09-12T09:56:50;11.90;;;9.77;;
56073;SDS011;41950;55.840;37.442;2023-09-12T09:59:21;11.40;;;9.05;;
56073;SDS011;41950;55.840;37.442;2023-09-12T10:01:49;11.20;;;9.57;;
56073;SDS011;41950;55.840;37.442;2023-09-12T10:04:16;10.85;;;9.75;;
56073;SDS011;41950;55.840;37.442;2023-09-12T10:06:44;11.23;;;9.27;;
56073;SDS011;41950;55.840;37.442;2023-09-12T10:09:13;9.48;;;7.97;;
56073;SDS011;41950;55.840;37.442;2023-09-12T10:11:42;10.77;;;8.20;;
56073;SDS011;41950;55.840;37.442;2023-09-12T10:14:08;10.02;;;7.97;;
56073;SDS011;41950;55.840;37.442;2023-09-12T10:16:42;10.77;;;8.05;;
56073;SDS011;41950;55.840;37.442;2023-09-12T10:19:25;8.25;;;7.25;;
56073;SDS011;41950;55.840;37.442;2023-09-12T10:24:24;8.85;;;7.70;;
56073;SDS011;41950;55.840;37.442;2023-09-12T10:26:50;10.55;;;8.02;;
56073;SDS011;41950;55.840;37.442;2023-09-12T10:29:17;10.00;;;8.32;;
56073;SDS011;41950;55.840;37.442;2023-09-12T10:31:43;8.27;;;7.03;;
56073;SDS011;41950;55.840;37.442;2023-09-12T10:34:10;9.68;;;8.52;;
56073;SDS011;41950;55.840;37.442;2023-09-12T10:36:39;10.48;;;8.55;;
56073;SDS011;41950;55.840;37.442;2023-09-12T10:39:06;8.77;;;7.32;;
56073;SDS011;41950;55.840;37.442;2023-09-12T10:41:38;10.68;;;7.53;;
56073;SDS011;41950;55.840;37.442;2023-09-12T10:44:06;8.02;;;6.85;;
56073;SDS011;41950;55.840;37.442;2023-09-12T10:46:36;8.73;;;6.65;;
56073;SDS011;41950;55.840;37.442;2023-09-12T10:49:06;23.70;;;8.35;;
56073;SDS011;41950;55.840;37.442;2023-09-12T10:51:35;10.00;;;7.10;;
56073;SDS011;41950;55.840;37.442;2023-09-12T10:54:06;11.38;;;7.75;;
56073;SDS011;41950;55.840;37.442;2023-09-12T10:56:33;9.13;;;7.82;;
56073;SDS011;41950;55.840;37.442;2023-09-12T11:01:36;11.13;;;7.93;;
56073;SDS011;41950;55.840;37.442;2023-09-12T11:06:50;9.18;;;6.38;;
56073;SDS011;41950;55.840;37.442;2023-09-12T11:11:45;7.88;;;6.13;;
56073;SDS011;41950;55.840;37.442;2023-09-12T11:14:12;8.35;;;6.43;;
56073;SDS011;41950;55.840;37.442;2023-09-12T11:16:38;8.00;;;6.57;;
56073;SDS011;41950;55.840;37.442;2023-09-12T11:21:49;8.95;;;6.90;;
56073;SDS011;41950;55.840;37.442;2023-09-12T11:24:16;8.43;;;6.45;;
56073;SDS011;41950;55.840;37.442;2023-09-12T11:27:04;9.27;;;7.68;;
56073;SDS011;41950;55.840;37.442;2023-09-12T11:29:37;9.18;;;7.78;;
56073;SDS011;41950;55.840;37.442;2023-09-12T11:32:04;9.65;;;7.97;;
56073;SDS011;41950;55.840;37.442;2023-09-12T11:34:40;7.70;;;6.90;;
56073;SDS011;41950;55.840;37.442;2023-09-12T11:37:08;8.70;;;7.57;;
56073;SDS011;41950;55.840;37.442;2023-09-12T11:39:35;11.10;;;7.82;;
56073;SDS011;41950;55.840;37.442;2023-09-12T11:42:03;9.98;;;7.90;;
56073;SDS011;41950;55.840;37.442;2023-09-12T11:44:30;8.80;;;7.90;;
56073;SDS011;41950;55.840;37.442;2023-09-12T11:47:00;9.02;;;7.93;;
56073;SDS011;41950;55.840;37.442;2023-09-12T11:49:40;10.32;;;7.80;;
56073;SDS011;41950;55.840;37.442;2023-09-12T11:52:10;10.13;;;8.52;;
56073;SDS011;41950;55.840;37.442;2023-09-12T11:54:38;8.95;;;8.02;;
56073;SDS011;41950;55.840;37.442;2023-09-12T11:57:05;11.05;;;8.32;;
56073;SDS011;41950;55.840;37.442;2023-09-12T11:59:36;8.90;;;7.93;;
56073;SDS011;41950;55.840;37.442;2023-09-12T12:02:05;8.98;;;6.80;;
56073;SDS011;41950;55.840;37.442;2023-09-12T12:04:32;8.23;;;6.25;;
56073;SDS011;41950;55.840;37.442;2023-09-12T12:06:58;8.43;;;6.30;;
56073;SDS011;41950;55.840;37.442;2023-09-12T12:09:23;8.20;;;6.50;;
56073;SDS011;41950;55.840;37.442;2023-09-12T12:11:50;9.07;;;6.10;;
56073;SDS011;41950;55.840;37.442;2023-09-12T12:14:17;8.75;;;6.25;;
56073;SDS011;41950;55.840;37.442;2023-09-12T12:16:46;9.52;;;7.60;;
56073;SDS011;41950;55.840;37.442;2023-09-12T12:19:12;10.50;;;6.85;;
56073;SDS011;41950;55.840;37.442;2023-09-12T12:21:42;7.78;;;6.90;;
56073;SDS011;41950;55.840;37.442;2023-09-12T12:24:11;8.10;;;6.43;;
56073;SDS011;41950;55.840;37.442;2023-09-12T12:26:42;6.72;;;5.43;;
56073;SDS011;41950;55.840;37.442;2023-09-12T12:29:09;7.55;;;6.13;;
56073;SDS011;41950;55.840;37.442;2023-09-12T12:31:35;8.77;;;6.40;;
56073;SDS011;41950;55.840;37.442;2023-09-12T12:34:02;7.07;;;6.05;;
56073;SDS011;41950;55.840;37.442;2023-09-12T12:36:29;8.43;;;6.28;;
56073;SDS011;41950;55.840;37.442;2023-09-12T12:38:54;9.02;;;6.75;;
56073;SDS011;41950;55.840;37.442;2023-09-12T12:41:24;6.78;;;5.57;;
56073;SDS011;41950;55.840;37.442;2023-09-12T12:43:51;11.13;;;6.47;;
56073;SDS011;41950;55.840;37.442;2023-09-12T12:46:18;9.15;;;6.88;;
56073;SDS011;41950;55.840;37.442;2023-09-12T12:48:47;10.32;;;7.30;;
56073;SDS011;41950;55.840;37.442;2023-09-12T12:51:17;8.45;;;7.55;;
56073;SDS011;41950;55.840;37.442;2023-09-12T12:56:23;7.57;;;6.78;;
56073;SDS011;41950;55.840;37.442;2023-09-12T12:58:56;7.93;;;5.85;;
56073;SDS011;41950;55.840;37.442;2023-09-12T13:01:24;8.20;;;6.07;;
56073;SDS011;41950;55.840;37.442;2023-09-12T13:03:50;8.90;;;5.75;;
56073;SDS011;41950;55.840;37.442;2023-09-12T13:06:17;8.75;;;6.78;;
56073;SDS011;41950;55.840;37.442;2023-09-12T13:08:44;10.30;;;6.75;;
56073;SDS011;41950;55.840;37.442;2023-09-12T13:11:12;8.20;;;6.55;;
56073;SDS011;41950;55.840;37.442;2023-09-12T13:13:39;7.90;;;6.10;;
56073;SDS011;41950;55.840;37.442;2023-09-12T13:16:07;7.75;;;6.15;;
56073;SDS011;41950;55.840;37.442;2023-09-12T13:18:37;7.47;;;6.68;;
56073;SDS011;41950;55.840;37.442;2023-09-12T13:21:03;7.80;;;6.50;;
56073;SDS011;41950;55.840;37.442;2023-09-12T13:23:35;9.35;;;6.82;;
56073;SDS011;41950;55.840;37.442;2023-09-12T13:26:02;7.78;;;6.50;;
56073;SDS011;41950;55.840;37.442;2023-09-12T13:28:28;9.30;;;6.85;;
56073;SDS011;41950;55.840;37.442;2023-09-12T13:30:54;9.20;;;6.70;;
56073;SDS011;41950;55.840;37.442;2023-09-12T13:33:20;8.65;;;6.35;;
56073;SDS011;41950;55.840;37.442;2023-09-12T13:35:48;9.38;;;7.35;;
56073;SDS011;41950;55.840;37.442;2023-09-12T13:38:14;8.95;;;5.85;;
56073;SDS011;41950;55.840;37.442;2023-09-12T13:40:43;9.02;;;6.47;;
56073;SDS011;41950;55.840;37.442;2023-09-12T13:43:09;8.57;;;5.55;;
56073;SDS011;41950;55.840;37.442;2023-09-12T13:45:38;8.35;;;6.00;;
56073;SDS011;41950;55.840;37.442;2023-09-12T13:48:05;9.05;;;5.78;;
56073;SDS011;41950;55.840;37.442;2023-09-12T13:50:32;7.80;;;5.28;;
56073;SDS011;41950;55.840;37.442;2023-09-12T13:52:58;8.25;;;5.60;;
56073;SDS011;41950;55.840;37.442;2023-09-12T13:55:25;9.77;;;5.97;;
56073;SDS011;41950;55.840;37.442;2023-09-12T13:57:51;7.35;;;5.78;;
56073;SDS011;41950;55.840;37.442;2023-09-12T14:00:17;8.60;;;5.88;;
56073;SDS011;41950;55.840;37.442;2023-09-12T14:02:43;11.35;;;6.93;;
56073;SDS011;41950;55.840;37.442;2023-09-12T14:05:09;7.65;;;5.75;;
56073;SDS011;41950;55.840;37.442;2023-09-12T14:07:36;7.88;;;6.07;;
56073;SDS011;41950;55.840;37.442;2023-09-12T14:10:03;8.23;;;5.55;;
56073;SDS011;41950;55.840;37.442;2023-09-12T14:12:31;9.57;;;5.75;;
56073;SDS011;41950;55.840;37.442;2023-09-12T14:14:57;7.90;;;5.82;;
56073;SDS011;41950;55.840;37.442;2023-09-12T14:17:22;7.50;;;5.35;;
56073;SDS011;41950;55.840;37.442;2023-09-12T14:19:48;9.00;;;6.03;;
56073;SDS011;41950;55.840;37.442;2023-09-12T14:22:14;8.82;;;5.93;;
56073;SDS011;41950;55.840;37.442;2023-09-12T14:24:40;7.85;;;5.55;;
56073;SDS011;41950;55.840;37.442;2023-09-12T14:27:06;9.05;;;5.63;;
56073;SDS011;41950;55.840;37.442;2023-09-12T14:29:31;6.65;;;5.78;;
56073;SDS011;41950;55.840;37.442;2023-09-12T14:31:57;8.93;;;5.90;;
56073;SDS011;41950;55.840;37.442;2023-09-12T14:34:23;7.57;;;5.68;;